Terminal Aerodrome Forecast
Issued by NWS

Home | Current Version | Previous Version | Text Only | Print | Product List | Glossary On
Versions: 1 2 3 4 5 6 7 8 9 10 11 12 13 14 15 16
000
FTUS43 KAPX 021740
TAFAPN
TAF
KAPN 021740Z 0218/0318 24009KT P6SM BKN070
      TEMPO 0218/0219 25016G30KT 3SM TSRA OVC035CB
     FM021900 22012G20KT P6SM VCTS BKN040CB
     FM030100 25006KT P6SM VCTS SCT018 OVC035CB
     FM030600 29005KT P6SM BKN015
     FM031400 30008KT P6SM SCT020 BKN040=

USA.gov is the U.S. government's official web portal to all federal, state and local government web resources and services.